createdAt,value
2023-03-31T00:01:22.759Z,1013.10
2023-03-31T00:07:10.176Z,1013.18
2023-03-31T00:13:03.673Z,1012.87
2023-03-31T00:18:46.422Z,1012.74
2023-03-31T00:24:33.962Z,1012.27
2023-03-31T00:30:16.462Z,1012.21
2023-03-31T00:36:05.022Z,1012.38
2023-03-31T00:41:52.521Z,1012.35
2023-03-31T00:47:35.389Z,1012.27
2023-03-31T00:58:44.753Z,1012.16
2023-03-31T01:04:03.671Z,1012.21
2023-03-31T01:09:22.639Z,1012.00
2023-03-31T01:15:09.824Z,1011.89
2023-03-31T01:20:52.250Z,1011.83
2023-03-31T01:26:08.667Z,1011.70
2023-03-31T01:31:48.394Z,1011.67
2023-03-31T01:37:01.669Z,1011.61
2023-03-31T01:42:49.329Z,1011.44
2023-03-31T01:48:06.105Z,1011.44
2023-03-31T01:53:19.840Z,1011.42
2023-03-31T01:58:27.224Z,1011.37
2023-03-31T02:03:34.916Z,1011.41
2023-03-31T02:08:42.490Z,1011.32
2023-03-31T02:13:50.036Z,1011.21
2023-03-31T02:18:59.482Z,1011.05
2023-03-31T02:24:07.200Z,1010.98
2023-03-31T02:29:14.700Z,1010.91
2023-03-31T02:34:22.422Z,1010.93
2023-03-31T02:39:30.012Z,1011.10
2023-03-31T02:44:37.759Z,1011.02
2023-03-31T02:49:56.638Z,1010.99
2023-03-31T02:55:08.952Z,1010.83
2023-03-31T03:00:16.567Z,1010.72
2023-03-31T03:06:03.849Z,1010.58
2023-03-31T03:11:44.428Z,1010.49
2023-03-31T03:17:26.952Z,1010.44
2023-03-31T03:23:09.645Z,1010.34
2023-03-31T03:28:52.029Z,1010.27
2023-03-31T03:33:59.551Z,1009.99
2023-03-31T03:39:42.394Z,1009.76
2023-03-31T03:45:29.655Z,1009.59
2023-03-31T03:51:12.976Z,1009.50
2023-03-31T03:56:20.601Z,1009.57
2023-03-31T04:02:07.890Z,1009.34
2023-03-31T04:07:50.169Z,1009.03
2023-03-31T04:13:35.644Z,1008.97
2023-03-31T04:19:18.128Z,1009.04
2023-03-31T04:25:00.523Z,1008.59
2023-03-31T04:35:55.915Z,1008.08
2023-03-31T04:41:43.110Z,1008.07
2023-03-31T04:47:40.699Z,1007.92
2023-03-31T04:53:23.157Z,1007.53
2023-03-31T05:04:11.724Z,1007.22
2023-03-31T05:09:28.704Z,1007.04
2023-03-31T05:15:15.930Z,1006.98
2023-03-31T05:20:26.614Z,1006.91
2023-03-31T05:26:06.859Z,1006.77
2023-03-31T05:31:21.257Z,1006.69
2023-03-31T05:36:53.259Z,1006.56
2023-03-31T05:41:56.041Z,1006.52
2023-03-31T05:47:08.123Z,1006.14
2023-03-31T05:52:15.615Z,1006.22
2023-03-31T05:57:23.094Z,1005.97
2023-03-31T06:02:30.512Z,1006.01
2023-03-31T06:07:37.800Z,1005.87
2023-03-31T06:12:45.430Z,1005.66
2023-03-31T06:17:52.921Z,1005.53
2023-03-31T06:23:04.983Z,1005.42
2023-03-31T06:28:12.410Z,1005.43
2023-03-31T06:33:19.571Z,1005.24
2023-03-31T06:38:26.850Z,1005.52
2023-03-31T06:43:34.135Z,1005.57
2023-03-31T06:48:41.437Z,1005.86
2023-03-31T06:53:48.580Z,1005.91
2023-03-31T06:58:55.979Z,1005.79
2023-03-31T07:04:03.169Z,1006.05
2023-03-31T07:09:10.597Z,1006.07
2023-03-31T07:14:18.361Z,1006.19
2023-03-31T07:19:25.503Z,1005.96
2023-03-31T07:24:32.766Z,1005.97
2023-03-31T07:29:39.979Z,1005.89
2023-03-31T07:34:47.143Z,1005.79
2023-03-31T07:39:54.338Z,1005.99
2023-03-31T07:45:01.543Z,1006.37
2023-03-31T07:50:08.697Z,1006.68
2023-03-31T07:55:15.894Z,1007.57
2023-03-31T08:00:23.087Z,1008.20
2023-03-31T08:05:30.352Z,1007.76
2023-03-31T08:10:37.541Z,1007.52
2023-03-31T08:15:44.851Z,1007.26
2023-03-31T08:20:52.010Z,1007.92
2023-03-31T08:25:59.217Z,1007.62
2023-03-31T08:31:06.407Z,1007.05
2023-03-31T08:36:13.700Z,1007.15
2023-03-31T08:41:20.850Z,1006.97
2023-03-31T08:46:28.242Z,1007.01
2023-03-31T08:51:35.418Z,1006.85
2023-03-31T08:56:42.754Z,1007.13
2023-03-31T09:01:56.236Z,1006.99
2023-03-31T09:06:56.983Z,1007.21
2023-03-31T09:12:04.162Z,1006.88
2023-03-31T09:17:14.517Z,1006.49
2023-03-31T09:22:21.666Z,1006.55
2023-03-31T09:27:28.972Z,1006.67
2023-03-31T09:32:36.448Z,1006.35
2023-03-31T09:37:43.616Z,1006.22
2023-03-31T09:42:50.889Z,1006.55
2023-03-31T09:47:58.255Z,1006.26
2023-03-31T09:53:05.374Z,1006.52
2023-03-31T09:58:12.679Z,1006.63
2023-03-31T10:03:19.897Z,1006.74
2023-03-31T10:08:27.157Z,1006.72
2023-03-31T10:13:34.415Z,1007.07
2023-03-31T10:18:41.635Z,1006.81
2023-03-31T10:23:48.784Z,1006.56
2023-03-31T10:28:56.057Z,1006.98
2023-03-31T10:34:03.362Z,1006.61
2023-03-31T10:39:10.539Z,1006.74
2023-03-31T10:44:17.706Z,1006.35
2023-03-31T10:49:24.924Z,1005.95
2023-03-31T10:54:32.167Z,1005.98
2023-03-31T10:59:39.384Z,1006.12
2023-03-31T11:04:46.704Z,1005.62
2023-03-31T11:09:53.862Z,1005.08
2023-03-31T11:15:01.134Z,1004.72
2023-03-31T11:20:08.449Z,1004.86
2023-03-31T11:25:15.627Z,1005.19
2023-03-31T11:30:22.781Z,1004.97
2023-03-31T11:35:30.071Z,1005.03
2023-03-31T11:40:37.255Z,1005.19
2023-03-31T11:45:44.631Z,1005.37
2023-03-31T11:50:51.839Z,1005.12
2023-03-31T11:55:59.011Z,1005.11
2023-03-31T12:01:06.289Z,1004.69
2023-03-31T12:06:13.526Z,1004.78
2023-03-31T12:11:20.726Z,1004.57
2023-03-31T12:16:28.016Z,1004.58
2023-03-31T12:21:35.261Z,1004.68
2023-03-31T12:26:42.548Z,1004.55
2023-03-31T12:31:49.890Z,1004.68
2023-03-31T12:36:57.031Z,1004.34
2023-03-31T12:42:04.389Z,1004.41
2023-03-31T12:47:11.658Z,1004.43
2023-03-31T12:52:18.954Z,1004.36
2023-03-31T12:57:26.240Z,1004.35
2023-03-31T13:02:33.543Z,1004.36
2023-03-31T13:07:40.801Z,1004.37
2023-03-31T13:12:48.025Z,1004.67
2023-03-31T13:17:55.285Z,1005.42
2023-03-31T13:23:02.452Z,1005.75
2023-03-31T13:28:09.621Z,1006.10
2023-03-31T13:33:18.321Z,1005.15
2023-03-31T13:38:24.171Z,1005.32
2023-03-31T13:43:31.409Z,1005.40
2023-03-31T13:48:38.686Z,1005.04
2023-03-31T13:53:45.916Z,1004.72
2023-03-31T13:58:53.146Z,1004.56
2023-03-31T14:04:00.426Z,1004.43
2023-03-31T14:09:07.669Z,1005.04
2023-03-31T14:14:14.873Z,1004.84
2023-03-31T14:24:29.289Z,1006.31
2023-03-31T14:29:36.480Z,1007.00
2023-03-31T14:34:43.777Z,1005.86
2023-03-31T14:39:50.943Z,1005.35
2023-03-31T14:44:58.122Z,1005.40
2023-03-31T14:50:07.473Z,1005.36
2023-03-31T14:55:12.498Z,1004.88
2023-03-31T15:00:19.665Z,1005.08
2023-03-31T15:05:26.886Z,1004.77
2023-03-31T15:10:34.014Z,1004.93
2023-03-31T15:15:41.250Z,1004.82
2023-03-31T15:20:48.412Z,1004.47
2023-03-31T15:25:55.611Z,1004.82
2023-03-31T15:31:10.101Z,1004.65
2023-03-31T15:36:09.985Z,1004.35
2023-03-31T15:41:17.171Z,1004.22
2023-03-31T15:46:24.352Z,1004.46
2023-03-31T15:51:31.523Z,1004.64
2023-03-31T15:56:38.825Z,1004.77
2023-03-31T16:01:46.113Z,1005.04
2023-03-31T16:06:53.293Z,1005.17
2023-03-31T16:12:00.584Z,1005.11
2023-03-31T16:17:07.907Z,1005.10
2023-03-31T16:22:15.297Z,1005.15
2023-03-31T16:27:22.597Z,1005.07
2023-03-31T16:32:29.820Z,1005.73
2023-03-31T16:37:37.055Z,1006.29
2023-03-31T16:42:44.300Z,1006.27
2023-03-31T16:47:53.113Z,1006.25
2023-03-31T16:52:58.632Z,1006.21
2023-03-31T16:58:05.862Z,1005.97
2023-03-31T17:03:14.313Z,1005.99
2023-03-31T17:08:21.615Z,1006.20
2023-03-31T17:13:28.841Z,1005.90
2023-03-31T17:18:36.253Z,1005.84
2023-03-31T17:23:43.452Z,1006.08
2023-03-31T17:28:50.793Z,1005.99
2023-03-31T17:33:58.307Z,1005.79
2023-03-31T17:39:05.727Z,1006.02
2023-03-31T17:44:13.216Z,1005.96
2023-03-31T17:49:21.147Z,1005.50
2023-03-31T17:54:28.667Z,1005.77
2023-03-31T17:59:37.609Z,1005.69
2023-03-31T18:04:43.598Z,1005.88
2023-03-31T18:09:51.080Z,1006.07
2023-03-31T18:14:58.633Z,1006.01
2023-03-31T18:20:06.011Z,1006.09
2023-03-31T18:25:13.451Z,1005.93
2023-03-31T18:30:20.971Z,1005.95
2023-03-31T18:35:28.324Z,1005.98
2023-03-31T18:40:35.857Z,1005.85
2023-03-31T18:45:43.598Z,1006.00
2023-03-31T18:50:51.135Z,1005.77
2023-03-31T18:55:58.817Z,1005.81
2023-03-31T19:01:06.523Z,1005.63
2023-03-31T19:06:14.047Z,1005.50
2023-03-31T19:11:21.664Z,1005.74
2023-03-31T19:16:29.417Z,1005.92
2023-03-31T19:21:37.092Z,1005.91
2023-03-31T19:26:44.810Z,1005.97
2023-03-31T19:31:52.607Z,1006.68
2023-03-31T19:37:00.447Z,1007.06
2023-03-31T19:42:08.263Z,1007.25
2023-03-31T19:47:16.016Z,1007.67
2023-03-31T19:52:23.394Z,1007.91
2023-03-31T19:57:30.854Z,1007.46
2023-03-31T20:02:38.614Z,1007.29
2023-03-31T20:07:46.052Z,1007.08
2023-03-31T20:12:53.825Z,1007.19
2023-03-31T20:18:01.503Z,1007.00
2023-03-31T20:23:09.177Z,1007.29
2023-03-31T20:28:16.788Z,1007.29
2023-03-31T20:33:24.586Z,1007.18
2023-03-31T20:38:31.948Z,1007.21
2023-03-31T20:43:39.203Z,1007.38
2023-03-31T20:48:46.560Z,1007.30
2023-03-31T20:53:53.787Z,1007.36
2023-03-31T20:59:01.103Z,1007.19
2023-03-31T21:04:08.512Z,1007.15
2023-03-31T21:09:15.629Z,1007.19
2023-03-31T21:14:22.832Z,1007.18
2023-03-31T21:19:30.154Z,1007.14
2023-03-31T21:24:37.414Z,1006.97
2023-03-31T21:29:44.714Z,1007.08
2023-03-31T21:34:52.014Z,1007.33
2023-03-31T21:39:59.284Z,1007.38
2023-03-31T21:45:06.578Z,1007.24
2023-03-31T21:50:13.871Z,1007.43
2023-03-31T21:55:21.139Z,1007.31
2023-03-31T22:00:28.390Z,1007.28
2023-03-31T22:05:35.674Z,1007.15
2023-03-31T22:10:42.906Z,1007.10
2023-03-31T22:15:50.188Z,1006.97
2023-03-31T22:21:39.155Z,1007.09
2023-03-31T22:27:35.140Z,1007.16
2023-03-31T22:32:53.912Z,1007.01
2023-03-31T22:38:36.198Z,1006.84
2023-03-31T22:48:57.020Z,1006.79
2023-03-31T22:54:18.927Z,1006.83
2023-03-31T23:00:33.736Z,1006.94
2023-03-31T23:07:11.096Z,1006.87
2023-03-31T23:12:09.856Z,1006.93
2023-03-31T23:17:24.662Z,1006.92
2023-03-31T23:23:10.389Z,1007.14
2023-03-31T23:28:53.137Z,1006.94
2023-03-31T23:34:14.667Z,1007.05
2023-03-31T23:40:01.889Z,1007.27
2023-03-31T23:45:49.349Z,1006.97
2023-03-31T23:52:21.651Z,1007.04
2023-03-31T23:57:06.047Z,1006.81
